createdAt,value
2022-09-05T00:00:11.495Z,95957.88
2022-09-05T00:02:50.665Z,95951.59
2022-09-05T00:05:49.575Z,95952.97
2022-09-05T00:08:40.810Z,95941.91
2022-09-05T00:11:42.619Z,95947.38
2022-09-05T00:14:36.728Z,95947.66
2022-09-05T00:17:47.200Z,95954.47
2022-09-05T00:24:20.594Z,95947.97
2022-09-05T00:24:32.021Z,95947.97
2022-09-05T00:26:28.688Z,95942.81
2022-09-05T00:29:07.104Z,95939.84
2022-09-05T00:31:56.373Z,95939.31
2022-09-05T00:34:53.642Z,95945.59
2022-09-05T00:37:34.704Z,95946.94
2022-09-05T00:40:28.139Z,95947.25
2022-09-05T00:42:59.157Z,95939.13
2022-09-05T00:45:34.090Z,95933.16
2022-09-05T00:48:16.827Z,95940.22
2022-09-05T00:50:59.836Z,95945.94
2022-09-05T00:53:37.728Z,95944.03
2022-09-05T00:56:16.941Z,95944.03
2022-09-05T00:59:02.965Z,95947.84
2022-09-05T01:01:32.360Z,95936.16
2022-09-05T01:04:28.708Z,95935.13
2022-09-05T01:07:11.493Z,95934.88
2022-09-05T01:10:04.137Z,95938.13
2022-09-05T01:13:03.236Z,95943.59
2022-09-05T01:15:43.653Z,95945.75
2022-09-05T01:18:25.356Z,95946.03
2022-09-05T01:21:31.255Z,95946.03
2022-09-05T01:24:28.287Z,95949.34
2022-09-05T01:28:23.635Z,95949.06
2022-09-05T01:30:31.836Z,95949.34
2022-09-05T01:33:10.561Z,95945.53
2022-09-05T01:36:14.829Z,95948.81
2022-09-05T01:39:55.174Z,95954.50
2022-09-05T01:41:49.624Z,95947.72
2022-09-05T01:44:42.144Z,95948.59
2022-09-05T01:47:30.973Z,95949.13
2022-09-05T01:50:07.320Z,95937.72
2022-09-05T01:53:01.893Z,95939.34
2022-09-05T01:56:04.896Z,95937.72
2022-09-05T01:58:49.136Z,95938.56
2022-09-05T02:01:32.360Z,95941.81
2022-09-05T02:04:26.160Z,95942.38
2022-09-05T02:07:20.002Z,95944.84
2022-09-05T02:10:27.854Z,95950.28
2022-09-05T02:13:04.080Z,95951.91
2022-09-05T02:15:57.741Z,95941.56
2022-09-05T02:18:40.697Z,95953.78
2022-09-05T02:21:15.930Z,95949.97
2022-09-05T02:23:49.536Z,95947.00
2022-09-05T02:26:24.132Z,95945.63
2022-09-05T02:28:57.304Z,95955.69
2022-09-05T02:31:30.741Z,95955.94
2022-09-05T02:34:08.181Z,95959.75
2022-09-05T02:36:41.042Z,95960.31
2022-09-05T02:45:08.182Z,95955.44
2022-09-05T02:45:10.846Z,95954.09
2022-09-05T02:45:25.779Z,95961.41
2022-09-05T02:48:15.574Z,95956.25
2022-09-05T02:57:18.905Z,95967.94
2022-09-05T02:57:35.092Z,95962.78
2022-09-05T02:57:39.660Z,95963.03
2022-09-05T02:59:49.560Z,95960.59
2022-09-05T03:02:26.407Z,95964.66
2022-09-05T03:05:07.139Z,95958.41
2022-09-05T03:07:54.223Z,95966.56
2022-09-05T03:10:54.661Z,95951.91
2022-09-05T03:13:59.897Z,95968.19
2022-09-05T03:17:00.394Z,95967.13
2022-09-05T03:20:05.681Z,95967.69
2022-09-05T03:23:17.727Z,95972.03
2022-09-05T03:26:34.150Z,95965.78
2022-09-05T03:29:35.102Z,95966.31
2022-09-05T03:32:49.087Z,95974.47
2022-09-05T03:36:02.417Z,95967.44
2022-09-05T03:39:09.571Z,95967.16
2022-09-05T03:41:56.773Z,95964.97
2022-09-05T03:44:40.860Z,95964.16
2022-09-05T03:47:49.378Z,95957.09
2022-09-05T03:57:08.459Z,95960.09
2022-09-05T03:57:18.322Z,95960.91
2022-09-05T03:57:19.945Z,95961.72
2022-09-05T04:00:07.752Z,95955.75
2022-09-05T04:08:06.416Z,95958.22
2022-09-05T04:08:13.434Z,95949.50
2022-09-05T04:08:38.547Z,95949.78
2022-09-05T04:11:15.036Z,95955.47
2022-09-05T04:13:50.258Z,95959.28
2022-09-05T04:16:21.465Z,95955.22
2022-09-05T04:18:55.165Z,95953.03
2022-09-05T04:21:27.153Z,95955.47
2022-09-05T04:24:03.980Z,95948.69
2022-09-05T04:27:00.206Z,95953.59
2022-09-05T04:29:41.336Z,95952.50
2022-09-05T04:32:19.733Z,95965.50
2022-09-05T04:35:00.489Z,95959.00
2022-09-05T04:37:48.152Z,95952.47
2022-09-05T04:40:37.452Z,95958.16
2022-09-05T04:43:09.075Z,95954.94
2022-09-05T04:45:42.774Z,95952.75
2022-09-05T04:48:23.795Z,95956.56
2022-09-05T04:51:13.183Z,95960.34
2022-09-05T04:54:04.790Z,95974.72
2022-09-05T04:56:37.326Z,95972.28
2022-09-05T05:03:01.687Z,95972.28
2022-09-05T05:06:11.033Z,95985.28
2022-09-05T05:06:17.110Z,95974.97
2022-09-05T05:07:59.170Z,95979.34
2022-09-05T05:14:07.649Z,95983.97
2022-09-05T05:17:57.886Z,95985.03
2022-09-05T05:18:09.410Z,95983.41
2022-09-05T05:19:21.359Z,95987.75
2022-09-05T05:21:54.468Z,95994.28
2022-09-05T05:24:27.795Z,95992.09
2022-09-05T05:27:05.109Z,95992.63
2022-09-05T05:29:43.272Z,95996.72
2022-09-05T05:32:19.570Z,95997.28
2022-09-05T05:35:11.037Z,95999.16
2022-09-05T05:37:46.341Z,96003.22
2022-09-05T05:40:22.912Z,96012.16
2022-09-05T05:42:50.825Z,96010.53
2022-09-05T05:45:21.301Z,96006.72
2022-09-05T05:47:53.118Z,96013.78
2022-09-05T05:50:36.481Z,96016.19
2022-09-05T05:53:40.963Z,96009.66
2022-09-05T05:56:28.946Z,96016.38
2022-09-05T05:59:26.467Z,96012.50
2022-09-05T06:02:26.471Z,96017.59
2022-09-05T06:05:21.197Z,96019.16
2022-09-05T06:11:04.616Z,96016.34
2022-09-05T06:14:50.808Z,96019.78
2022-09-05T06:15:09.385Z,96016.38
2022-09-05T06:18:07.293Z,96025.81
2022-09-05T06:22:09.577Z,96013.44
2022-09-05T06:24:24.331Z,96016.00
2022-09-05T06:27:27.182Z,96016.91
2022-09-05T06:30:00.572Z,96014.81
2022-09-05T06:32:49.234Z,96008.84
2022-09-05T06:35:33.086Z,96010.94
2022-09-05T06:38:19.574Z,96000.84
2022-09-05T06:41:01.648Z,96011.38
2022-09-05T06:43:41.777Z,96005.25
2022-09-05T06:46:55.262Z,96002.75
2022-09-05T06:49:30.670Z,96003.84
2022-09-05T06:52:50.884Z,95997.09
2022-09-05T06:55:54.711Z,95999.53
2022-09-05T06:58:51.180Z,95994.44
2022-09-05T07:01:50.048Z,96006.97
2022-09-05T07:05:23.347Z,96000.34
2022-09-05T07:07:23.004Z,96005.50
2022-09-05T07:10:03.865Z,96008.19
2022-09-05T07:12:48.703Z,96004.97
2022-09-05T07:15:31.559Z,95998.28
2022-09-05T07:18:10.681Z,96000.47
2022-09-05T07:21:17.166Z,96000.22
2022-09-05T07:24:10.254Z,96003.81
2022-09-05T07:26:54.184Z,96005.97
2022-09-05T07:29:30.014Z,96000.72
2022-09-05T07:32:00.578Z,96014.50
2022-09-05T07:34:30.844Z,96010.97
2022-09-05T07:37:14.732Z,96011.03
2022-09-05T07:39:51.189Z,96007.66
2022-09-05T07:42:25.814Z,96008.34
2022-09-05T07:44:59.341Z,96005.31
2022-09-05T07:47:30.907Z,96008.56
2022-09-05T07:52:35.288Z,96013.72
2022-09-05T07:56:59.940Z,96005.53
2022-09-05T07:57:10.465Z,96010.59
2022-09-05T07:58:41.609Z,96014.44
2022-09-05T08:01:13.665Z,96015.72
2022-09-05T08:03:43.970Z,96014.59
2022-09-05T08:06:28.959Z,96012.63
2022-09-05T08:10:08.349Z,96005.16
2022-09-05T08:12:11.347Z,96008.41
2022-09-05T08:14:46.211Z,96005.00
2022-09-05T08:17:20.695Z,96001.41
2022-09-05T08:20:11.918Z,96005.25
2022-09-05T08:22:52.601Z,96000.16
2022-09-05T08:25:25.596Z,95996.66
2022-09-05T08:28:07.362Z,95996.56
2022-09-05T08:30:44.457Z,95996.03
2022-09-05T08:33:19.291Z,95996.75
2022-09-05T08:35:59.309Z,95989.16
2022-09-05T08:38:40.475Z,95995.16
2022-09-05T08:41:16.945Z,95991.69
2022-09-05T08:46:36.246Z,95986.63
2022-09-05T08:46:51.095Z,95986.22
2022-09-05T08:49:45.988Z,95981.88
2022-09-05T08:52:29.043Z,95978.09
2022-09-05T08:55:08.795Z,95963.00
2022-09-05T08:58:04.149Z,95974.94
2022-09-05T09:00:38.314Z,95970.78
2022-09-05T09:03:28.076Z,95968.50
2022-09-05T09:06:17.502Z,95964.63
2022-09-05T09:09:02.102Z,95964.63
2022-09-05T09:11:37.054Z,95960.59
2022-09-05T09:14:38.446Z,95959.84
2022-09-05T09:17:33.094Z,95959.84
2022-09-05T09:20:26.428Z,95946.81
2022-09-05T09:23:03.427Z,95944.34
2022-09-05T09:25:38.842Z,95947.44
2022-09-05T09:28:47.868Z,95947.59
2022-09-05T09:31:29.890Z,95947.72
2022-09-05T09:34:12.376Z,95941.50
2022-09-05T09:37:08.290Z,95940.25
2022-09-05T09:39:57.242Z,95940.38
2022-09-05T09:42:38.257Z,95937.22
2022-09-05T09:45:31.425Z,95937.44
2022-09-05T09:48:36.878Z,95938.03
2022-09-05T09:51:17.346Z,95934.69
2022-09-05T09:54:00.244Z,95944.16
2022-09-05T09:57:09.133Z,95939.75
2022-09-05T10:00:07.529Z,95940.88
2022-09-05T10:04:51.296Z,95940.44
2022-09-05T10:10:44.655Z,95935.91
2022-09-05T10:10:51.904Z,95937.31
2022-09-05T10:12:29.474Z,95931.69
2022-09-05T10:15:04.976Z,95931.53
2022-09-05T10:18:16.358Z,95925.91
2022-09-05T10:21:16.994Z,95923.03
2022-09-05T10:24:02.730Z,95919.22
2022-09-05T10:27:05.532Z,95924.41
2022-09-05T10:29:46.949Z,95925.47
2022-09-05T10:35:08.404Z,95914.09
2022-09-05T10:35:22.467Z,95913.72
2022-09-05T10:37:56.175Z,95914.06
2022-09-05T10:40:26.642Z,95915.03
2022-09-05T10:43:01.422Z,95906.41
2022-09-05T10:45:38.521Z,95905.94
2022-09-05T10:48:13.716Z,95898.69
2022-09-05T10:50:47.211Z,95896.31
2022-09-05T10:53:38.906Z,95895.84
2022-09-05T10:56:14.148Z,95896.22
2022-09-05T11:00:05.663Z,95891.66
2022-09-05T11:02:30.041Z,95893.47
2022-09-05T11:04:54.006Z,95888.69
2022-09-05T11:07:39.522Z,95888.44
2022-09-05T11:10:14.618Z,95888.00
2022-09-05T11:13:10.314Z,95879.78
2022-09-05T11:16:04.893Z,95877.38
2022-09-05T11:18:57.526Z,95877.00
2022-09-05T11:21:47.118Z,95887.19
2022-09-05T11:24:27.748Z,95892.88
2022-09-05T11:27:23.820Z,95891.69
2022-09-05T11:29:51.378Z,95881.06
2022-09-05T11:36:44.327Z,95884.38
2022-09-05T11:40:07.455Z,95877.81
2022-09-05T11:40:10.267Z,95875.22
2022-09-05T11:42:10.140Z,95875.22
2022-09-05T11:44:47.067Z,95871.66
2022-09-05T11:47:48.617Z,95869.69
2022-09-05T11:50:38.915Z,95862.81
2022-09-05T11:53:32.146Z,95869.75
2022-09-05T11:56:28.487Z,95866.88
2022-09-05T11:59:37.312Z,95852.66
2022-09-05T12:02:27.426Z,95859.63
2022-09-05T12:05:49.292Z,95858.03
2022-09-05T12:08:13.474Z,95854.69
2022-09-05T12:10:52.786Z,95854.47
2022-09-05T12:13:38.954Z,95858.38
2022-09-05T12:16:26.481Z,95852.28
2022-09-05T12:19:18.576Z,95847.25
2022-09-05T12:22:16.329Z,95842.72
2022-09-05T12:25:23.974Z,95848.13
2022-09-05T12:29:09.739Z,95845.06
2022-09-05T12:31:53.905Z,95840.25
2022-09-05T12:36:07.866Z,95841.22
2022-09-05T12:39:21.473Z,95836.91
2022-09-05T12:41:32.500Z,95837.16
2022-09-05T12:42:39.988Z,95838.91
2022-09-05T12:45:25.452Z,95839.03
2022-09-05T12:48:12.536Z,95842.88
2022-09-05T12:50:50.733Z,95839.50
2022-09-05T12:53:21.533Z,95837.50
2022-09-05T12:56:45.912Z,95837.00
2022-09-05T13:02:56.874Z,95831.03
2022-09-05T13:02:57.717Z,95825.66
2022-09-05T13:04:32.505Z,95833.38
2022-09-05T13:07:07.398Z,95830.03
2022-09-05T13:10:24.175Z,95828.72
2022-09-05T13:14:54.536Z,95823.16
2022-09-05T13:15:28.271Z,95814.50
2022-09-05T13:18:00.983Z,95805.69
2022-09-05T13:20:36.550Z,95806.59
2022-09-05T13:23:16.566Z,95801.19
2022-09-05T13:25:56.262Z,95807.59
2022-09-05T13:28:27.599Z,95811.00
2022-09-05T13:34:50.714Z,95801.28
2022-09-05T13:37:58.254Z,95804.06
2022-09-05T13:38:30.717Z,95796.03
2022-09-05T13:39:44.683Z,95794.78
2022-09-05T13:42:18.581Z,95789.38
2022-09-05T13:44:47.772Z,95787.44
2022-09-05T13:47:33.306Z,95796.72
2022-09-05T13:50:17.559Z,95792.16
2022-09-05T13:52:51.601Z,95791.50
2022-09-05T13:55:24.351Z,95787.22
2022-09-05T13:57:57.490Z,95778.31
2022-09-05T14:01:04.135Z,95779.00
2022-09-05T14:07:46.137Z,95767.94
2022-09-05T14:10:49.431Z,95772.28
2022-09-05T14:13:24.396Z,95765.03
2022-09-05T14:15:58.994Z,95771.69
2022-09-05T14:18:30.132Z,95755.53
2022-09-05T14:21:16.850Z,95754.56
2022-09-05T14:23:53.590Z,95750.03
2022-09-05T14:26:28.009Z,95747.34
2022-09-05T14:29:06.953Z,95748.56
2022-09-05T14:37:41.200Z,95746.19
2022-09-05T14:37:45.592Z,95749.50
2022-09-05T14:38:09.410Z,95757.44
2022-09-05T14:41:18.423Z,95753.47
2022-09-05T14:44:15.621Z,95746.72
2022-09-05T14:47:12.569Z,95749.22
2022-09-05T14:50:20.761Z,95750.13
2022-09-05T14:56:00.086Z,95742.59
2022-09-05T15:02:41.332Z,95753.03
2022-09-05T15:02:51.406Z,95744.84
2022-09-05T15:07:02.757Z,95749.97
2022-09-05T15:12:25.031Z,95754.34
2022-09-05T15:12:39.676Z,95744.28
2022-09-05T15:15:20.165Z,95741.47
2022-09-05T15:17:51.239Z,95743.88
2022-09-05T15:20:33.172Z,95749.81
2022-09-05T15:23:11.210Z,95737.50
2022-09-05T15:25:48.126Z,95741.13
2022-09-05T15:28:31.937Z,95742.00
2022-09-05T15:31:04.409Z,95733.63
2022-09-05T15:33:33.078Z,95728.81
2022-09-05T15:36:03.508Z,95731.88
2022-09-05T15:38:55.694Z,95723.78
2022-09-05T15:41:25.861Z,95724.38
2022-09-05T15:44:02.115Z,95726.19
2022-09-05T15:46:49.139Z,95722.91
2022-09-05T15:49:30.094Z,95714.53
2022-09-05T15:52:02.470Z,95713.72
2022-09-05T15:54:37.538Z,95714.56
2022-09-05T15:57:18.137Z,95717.03
2022-09-05T15:59:49.459Z,95713.94
2022-09-05T16:02:23.309Z,95709.44
2022-09-05T16:10:31.324Z,95717.22
2022-09-05T16:10:35.547Z,95720.63
2022-09-05T16:11:04.499Z,95722.78
2022-09-05T16:13:52.394Z,95715.06
2022-09-05T16:23:14.683Z,95728.97
2022-09-05T16:23:26.368Z,95723.72
2022-09-05T16:23:33.603Z,95728.78
2022-09-05T16:25:00.703Z,95727.34
2022-09-05T16:27:45.939Z,95728.06
2022-09-05T16:30:21.750Z,95724.28
2022-09-05T16:32:51.911Z,95718.59
2022-09-05T16:35:25.125Z,95727.22
2022-09-05T16:38:00.850Z,95725.19
2022-09-05T16:40:33.124Z,95723.16
2022-09-05T16:43:05.942Z,95724.69
2022-09-05T16:45:41.554Z,95723.66
2022-09-05T16:48:27.021Z,95715.19
2022-09-05T16:51:05.761Z,95717.34
2022-09-05T16:53:59.149Z,95722.78
2022-09-05T16:56:35.003Z,95711.81
2022-09-05T16:59:07.085Z,95723.09
2022-09-05T17:02:06.083Z,95719.38
2022-09-05T17:05:04.187Z,95715.09
2022-09-05T17:07:57.726Z,95714.88
2022-09-05T17:10:28.246Z,95723.25
2022-09-05T17:12:57.711Z,95725.31
2022-09-05T17:15:29.997Z,95717.09
2022-09-05T17:18:21.719Z,95715.72
2022-09-05T17:20:54.935Z,95719.50
2022-09-05T17:28:47.374Z,95718.19
2022-09-05T17:29:32.751Z,95720.38
2022-09-05T17:29:38.124Z,95725.25
2022-09-05T17:32:01.833Z,95719.03
2022-09-05T17:34:49.636Z,95715.72
2022-09-05T17:37:46.252Z,95709.75
2022-09-05T17:40:48.183Z,95722.28
2022-09-05T17:43:28.574Z,95717.47
2022-09-05T17:46:10.593Z,95723.88
2022-09-05T17:49:18.146Z,95719.97
2022-09-05T17:52:22.820Z,95721.69
2022-09-05T17:54:53.462Z,95725.34
2022-09-05T17:57:39.941Z,95720.63
2022-09-05T18:00:40.515Z,95726.81
2022-09-05T18:03:09.958Z,95720.56
2022-09-05T18:06:03.794Z,95727.31
2022-09-05T18:08:52.736Z,95733.38
2022-09-05T18:11:37.669Z,95735.88
2022-09-05T18:14:42.731Z,95736.53
2022-09-05T18:17:36.603Z,95733.34
2022-09-05T18:20:16.288Z,95740.91
2022-09-05T18:22:54.915Z,95746.47
2022-09-05T18:25:49.216Z,95742.16
2022-09-05T18:28:22.918Z,95742.59
2022-09-05T18:30:52.841Z,95748.34
2022-09-05T18:34:03.761Z,95749.38
2022-09-05T18:36:34.571Z,95752.69
2022-09-05T18:39:39.589Z,95753.06
2022-09-05T18:42:26.189Z,95758.13
2022-09-05T18:45:02.496Z,95752.34
2022-09-05T18:47:53.066Z,95759.94
2022-09-05T18:50:29.024Z,95758.88
2022-09-05T18:53:09.671Z,95751.41
2022-09-05T18:56:12.660Z,95751.56
2022-09-05T18:58:34.327Z,95764.22
2022-09-05T19:01:20.160Z,95755.97
2022-09-05T19:03:52.555Z,95750.81
2022-09-05T19:06:36.556Z,95750.69
2022-09-05T19:09:11.322Z,95750.38
2022-09-05T19:11:53.445Z,95760.06
2022-09-05T19:14:33.153Z,95752.00
2022-09-05T19:17:08.403Z,95762.31
2022-09-05T19:20:31.305Z,95751.03
2022-09-05T19:23:10.314Z,95763.63
2022-09-05T19:25:43.746Z,95762.50
2022-09-05T19:36:45.353Z,95760.38
2022-09-05T19:36:59.755Z,95757.97
2022-09-05T19:37:22.778Z,95762.97
2022-09-05T19:37:24.082Z,95768.91
2022-09-05T19:45:36.735Z,95771.00
2022-09-05T19:47:36.397Z,95761.78
2022-09-05T19:47:55.962Z,95761.63
2022-09-05T19:51:16.458Z,95748.72
2022-09-05T19:53:48.869Z,95758.69
2022-09-05T19:56:39.152Z,95758.53
2022-09-05T19:59:18.685Z,95749.66
2022-09-05T20:01:48.004Z,95748.34
2022-09-05T20:04:18.908Z,95749.63
2022-09-05T20:06:47.421Z,95751.41
2022-09-05T20:09:17.062Z,95746.06
2022-09-05T20:11:49.878Z,95745.88
2022-09-05T20:14:22.422Z,95751.19
2022-09-05T20:16:51.446Z,95756.03
2022-09-05T20:19:29.481Z,95751.97
2022-09-05T20:22:14.364Z,95745.50
2022-09-05T20:24:49.213Z,95740.97
2022-09-05T20:27:17.532Z,95743.88
2022-09-05T20:29:55.910Z,95734.66
2022-09-05T20:32:39.584Z,95740.28
2022-09-05T20:38:57.025Z,95734.13
2022-09-05T20:43:24.765Z,95731.81
2022-09-05T20:43:35.134Z,95732.59
2022-09-05T20:43:53.709Z,95730.31
2022-09-05T20:51:37.916Z,95737.03
2022-09-05T20:54:07.229Z,95738.59
2022-09-05T20:54:22.769Z,95739.84
2022-09-05T20:55:16.044Z,95744.84
2022-09-05T20:57:50.835Z,95739.38
2022-09-05T21:00:23.546Z,95732.56
2022-09-05T21:02:56.082Z,95735.44
2022-09-05T21:05:34.179Z,95737.66
2022-09-05T21:08:32.447Z,95737.81
2022-09-05T21:11:02.735Z,95736.31
2022-09-05T21:13:33.358Z,95727.41
2022-09-05T21:16:04.223Z,95731.94
2022-09-05T21:18:34.371Z,95736.09
2022-09-05T21:21:14.587Z,95739.63
2022-09-05T21:24:16.346Z,95731.63
2022-09-05T21:26:47.411Z,95734.34
2022-09-05T21:29:17.554Z,95728.88
2022-09-05T21:31:49.183Z,95732.72
2022-09-05T21:34:27.980Z,95735.28
2022-09-05T21:37:06.793Z,95738.63
2022-09-05T21:39:39.944Z,95747.13
2022-09-05T21:47:07.316Z,95745.03
2022-09-05T21:47:39.159Z,95745.16
2022-09-05T21:47:53.263Z,95745.28
2022-09-05T21:50:30.492Z,95744.28
2022-09-05T21:54:01.678Z,95742.44
2022-09-05T21:59:24.252Z,95745.03
2022-09-05T21:59:25.144Z,95734.19
2022-09-05T22:01:48.650Z,95739.84
2022-09-05T22:04:15.313Z,95731.75
2022-09-05T22:06:48.535Z,95726.41
2022-09-05T22:09:19.621Z,95744.03
2022-09-05T22:11:50.628Z,95734.31
2022-09-05T22:14:18.767Z,95735.72
2022-09-05T22:16:47.411Z,95739.06
2022-09-05T22:19:22.920Z,95737.75
2022-09-05T22:21:54.031Z,95725.84
2022-09-05T22:24:23.950Z,95728.38
2022-09-05T22:27:11.245Z,95731.41
2022-09-05T22:29:40.997Z,95728.16
2022-09-05T22:32:09.165Z,95726.03
2022-09-05T22:34:37.007Z,95732.13
2022-09-05T22:37:06.389Z,95728.41
2022-09-05T22:39:36.377Z,95728.69
2022-09-05T22:42:07.621Z,95730.13
2022-09-05T22:44:39.104Z,95729.59
2022-09-05T23:14:20.715Z,95725.47
2022-09-05T23:24:45.919Z,95722.75
2022-09-05T23:27:28.001Z,95719.00
2022-09-05T23:33:46.175Z,95721.03
2022-09-05T23:39:44.001Z,95713.72
2022-09-05T23:42:24.637Z,95709.69
2022-09-05T23:45:20.749Z,95693.41
2022-09-05T23:55:00.437Z,95697.81
2022-09-05T23:58:20.051Z,95692.38
